Time;durP1;ratioP1;P1;durP2;ratioP2;P2;SDS_P1;SDS_P2;PMS_P1;PMS_P2;Temp;Humidity;BMP_temperature;BMP_pressure;BME280_temperature;BME280_humidity;BME280_pressure;Samples;Min_cycle;Max_cycle;Signal;HPM_P1;HPM_P2
2023/11/09 00:00:15;;;;;;;4.70;2.00;;;;;;;;;;696027;28;1548;-69
2023/11/09 00:00:37;;;;;;;4.70;1.90;;;;;;;;;;695858;28;1219;-67
2023/11/09 00:00:57;;;;;;;3.90;1.90;;;;;;;;;;699314;28;4401;-66
2023/11/09 00:01:17;;;;;;;4.30;1.73;;;;;;;;;;700980;28;1744;-68
2023/11/09 00:01:38;;;;;;;3.97;1.80;;;;;;;;;;703188;28;1257;-67
2023/11/09 00:01:58;;;;;;;5.00;2.13;;;;;;;;;;703492;27;1253;-68
2023/11/09 00:02:18;;;;;;;5.73;2.17;;;;;;;;;;703842;28;1769;-67
2023/11/09 00:02:38;;;;;;;4.67;1.83;;;;;;;;;;705656;28;1138;-68
2023/11/09 00:02:59;;;;;;;4.30;1.85;;;;;;;;;;706513;28;1320;-67
2023/11/09 00:03:19;;;;;;;4.77;1.97;;;;;;;;;;701350;28;1412;-68
2023/11/09 00:03:39;;;;;;;4.00;2.00;;;;;;;;;;703129;28;1229;-68
2023/11/09 00:04:01;;;;;;;4.47;2.00;;;;;;;;;;698298;28;4259;-67
2023/11/09 00:04:23;;;;;;;4.20;1.90;;;;;;;;;;697372;28;1786;-68
2023/11/09 00:04:44;;;;;;;4.10;2.00;;;;;;;;;;698589;28;1314;-67
2023/11/09 00:05:05;;;;;;;3.95;2.10;;;;;;;;;;699256;28;1221;-67
2023/11/09 00:05:25;;;;;;;4.27;1.93;;;;;;;;;;699603;28;2437;-64
2023/11/09 00:05:49;;;;;;;4.13;1.97;;;;;;;;;;702311;27;1276;-68
2023/11/09 00:06:10;;;;;;;4.35;2.10;;;;;;;;;;704300;28;3275;-69
2023/11/09 00:06:32;;;;;;;4.30;2.10;;;;;;;;;;703723;28;1236;-67
2023/11/09 00:06:53;;;;;;;4.13;2.05;;;;;;;;;;702414;28;4236;-68
2023/11/09 00:07:16;;;;;;;4.25;2.00;;;;;;;;;;698653;28;1512;-68
2023/11/09 00:07:37;;;;;;;4.05;1.90;;;;;;;;;;700615;28;1328;-67
2023/11/09 00:07:59;;;;;;;4.63;2.00;;;;;;;;;;700726;28;1174;-68
2023/11/09 00:08:19;;;;;;;4.82;1.90;;;;;;;;;;696887;28;1910;-67
2023/11/09 00:08:43;;;;;;;4.32;1.95;;;;;;;;;;700140;28;1348;-70
2023/11/09 00:09:04;;;;;;;5.13;2.00;;;;;;;;;;696083;28;1210;-67
2023/11/09 00:09:24;;;;;;;4.23;1.90;;;;;;;;;;695477;28;1594;-68
2023/11/09 00:09:45;;;;;;;3.70;1.90;;;;;;;;;;697384;28;4247;-67
2023/11/09 00:10:06;;;;;;;4.00;2.07;;;;;;;;;;696016;28;1194;-69
2023/11/09 00:10:27;;;;;;;5.07;2.15;;;;;;;;;;695076;28;2315;-69
2023/11/09 00:10:47;;;;;;;4.17;1.90;;;;;;;;;;695699;28;1222;-68
2023/11/09 00:11:08;;;;;;;4.00;1.95;;;;;;;;;;698251;28;1282;-68
2023/11/09 00:11:28;;;;;;;4.47;1.80;;;;;;;;;;699315;28;1556;-69
2023/11/09 00:11:49;;;;;;;4.60;1.83;;;;;;;;;;700690;28;1123;-69
2023/11/09 00:12:10;;;;;;;4.13;1.80;;;;;;;;;;701176;28;1170;-68
2023/11/09 00:12:32;;;;;;;3.85;1.83;;;;;;;;;;700419;28;1150;-69
2023/11/09 00:12:53;;;;;;;4.07;1.80;;;;;;;;;;699081;28;4255;-68
2023/11/09 00:13:13;;;;;;;4.32;2.00;;;;;;;;;;698804;28;1198;-68
2023/11/09 00:13:34;;;;;;;4.23;1.80;;;;;;;;;;700265;28;1268;-63
2023/11/09 00:13:54;;;;;;;3.70;1.70;;;;;;;;;;701496;28;1136;-65
2023/11/09 00:14:17;;;;;;;4.43;1.87;;;;;;;;;;701812;28;2266;-66
2023/11/09 00:14:38;;;;;;;4.45;1.80;;;;;;;;;;704796;28;1250;-66
2023/11/09 00:14:58;;;;;;;4.50;1.80;;;;;;;;;;706469;28;1236;-68
2023/11/09 00:15:20;;;;;;;3.70;1.88;;;;;;;;;;704866;28;1216;-65
2023/11/09 00:15:40;;;;;;;3.97;1.90;;;;;;;;;;705683;28;1450;-67
2023/11/09 00:16:00;;;;;;;4.87;1.90;;;;;;;;;;705474;28;4250;-66
2023/11/09 00:16:21;;;;;;;4.50;2.10;;;;;;;;;;702582;28;2078;-68
2023/11/09 00:16:42;;;;;;;4.77;2.00;;;;;;;;;;701990;28;1474;-66
2023/11/09 00:17:02;;;;;;;6.10;2.22;;;;;;;;;;702432;28;1127;-68
2023/11/09 00:17:22;;;;;;;4.67;1.97;;;;;;;;;;698180;28;1798;-66
2023/11/09 00:17:43;;;;;;;4.43;1.83;;;;;;;;;;697625;28;1609;-65
2023/11/09 00:18:03;;;;;;;4.20;1.80;;;;;;;;;;698148;28;1269;-68
2023/11/09 00:18:23;;;;;;;5.40;1.97;;;;;;;;;;699598;28;1740;-65
2023/11/09 00:18:44;;;;;;;5.87;2.10;;;;;;;;;;697647;28;1575;-66
2023/11/09 00:19:04;;;;;;;5.88;2.10;;;;;;;;;;695576;28;4558;-65
2023/11/09 00:19:24;;;;;;;4.97;1.80;;;;;;;;;;696503;28;2252;-66
2023/11/09 00:19:44;;;;;;;6.67;2.27;;;;;;;;;;701242;28;1273;-66
2023/11/09 00:20:07;;;;;;;5.25;1.90;;;;;;;;;;697026;28;3841;-65
2023/11/09 00:20:27;;;;;;;3.97;1.83;;;;;;;;;;691713;28;2253;-66
2023/11/09 00:20:48;;;;;;;4.60;1.90;;;;;;;;;;695544;28;1159;-66
2023/11/09 00:21:09;;;;;;;3.85;1.90;;;;;;;;;;697549;28;1166;-65
2023/11/09 00:21:30;;;;;;;3.67;1.70;;;;;;;;;;695222;28;1844;-66
2023/11/09 00:21:50;;;;;;;4.70;1.87;;;;;;;;;;697389;28;4575;-66
2023/11/09 00:22:10;;;;;;;4.03;1.90;;;;;;;;;;700053;28;1174;-66
2023/11/09 00:22:31;;;;;;;3.92;1.77;;;;;;;;;;705313;28;1202;-65
2023/11/09 00:22:52;;;;;;;3.43;1.93;;;;;;;;;;702132;28;1703;-66
2023/11/09 00:23:13;;;;;;;4.40;1.90;;;;;;;;;;701679;28;2374;-65
2023/11/09 00:23:33;;;;;;;4.67;1.90;;;;;;;;;;702511;28;1249;-66
2023/11/09 00:23:53;;;;;;;4.22;2.00;;;;;;;;;;703621;28;1220;-66
2023/11/09 00:24:14;;;;;;;4.53;2.07;;;;;;;;;;698964;28;1593;-67
2023/11/09 00:24:34;;;;;;;5.40;2.10;;;;;;;;;;701049;28;1171;-69
2023/11/09 00:24:55;;;;;;;6.15;2.08;;;;;;;;;;701975;28;4354;-65
2023/11/09 00:25:17;;;;;;;4.57;1.90;;;;;;;;;;700882;28;2305;-64
2023/11/09 00:25:37;;;;;;;4.55;2.10;;;;;;;;;;702614;28;1393;-66
2023/11/09 00:25:58;;;;;;;4.83;2.10;;;;;;;;;;702965;28;1193;-66
2023/11/09 00:26:19;;;;;;;6.53;2.13;;;;;;;;;;701238;28;1242;-65
2023/11/09 00:26:45;;;;;;;5.05;2.00;;;;;;;;;;699165;28;1748;-66
2023/11/09 00:27:05;;;;;;;4.20;1.95;;;;;;;;;;698682;28;1139;-66
2023/11/09 00:27:26;;;;;;;4.23;1.90;;;;;;;;;;697652;28;1067;-64
2023/11/09 00:27:46;;;;;;;4.38;1.98;;;;;;;;;;696554;28;4466;-66
2023/11/09 00:28:07;;;;;;;3.50;1.93;;;;;;;;;;698006;28;1122;-65
2023/11/09 00:28:27;;;;;;;3.85;1.90;;;;;;;;;;696380;28;2465;-65
2023/11/09 00:28:50;;;;;;;3.93;1.87;;;;;;;;;;698103;28;1286;-65
2023/11/09 00:29:11;;;;;;;3.72;1.80;;;;;;;;;;697566;28;1282;-68
2023/11/09 00:29:33;;;;;;;4.35;1.77;;;;;;;;;;698157;28;1164;-67
2023/11/09 00:29:53;;;;;;;4.28;1.92;;;;;;;;;;700174;28;1261;-67
2023/11/09 00:30:13;;;;;;;4.43;2.00;;;;;;;;;;697881;28;2365;-66
2023/11/09 00:30:34;;;;;;;3.95;1.90;;;;;;;;;;700483;28;1205;-67
2023/11/09 00:30:54;;;;;;;3.60;1.73;;;;;;;;;;699942;28;4282;-66
2023/11/09 00:31:14;;;;;;;3.90;1.70;;;;;;;;;;699568;28;1757;-66
2023/11/09 00:31:35;;;;;;;3.60;1.70;;;;;;;;;;700422;28;1769;-66
2023/11/09 00:31:55;;;;;;;3.43;1.70;;;;;;;;;;699863;28;1642;-66
2023/11/09 00:32:16;;;;;;;3.78;1.75;;;;;;;;;;699112;28;2375;-66
2023/11/09 00:32:37;;;;;;;4.10;1.65;;;;;;;;;;695772;28;1222;-67
2023/11/09 00:32:57;;;;;;;4.03;1.70;;;;;;;;;;696999;28;1273;-70
2023/11/09 00:33:17;;;;;;;4.27;1.90;;;;;;;;;;696193;28;1226;-68
2023/11/09 00:33:38;;;;;;;4.13;2.00;;;;;;;;;;697860;28;1349;-69
2023/11/09 00:33:58;;;;;;;3.92;1.73;;;;;;;;;;696078;28;4449;-69
2023/11/09 00:34:19;;;;;;;4.00;1.80;;;;;;;;;;696491;28;1767;-69
2023/11/09 00:34:39;;;;;;;3.45;1.73;;;;;;;;;;700424;28;1333;-70
2023/11/09 00:34:59;;;;;;;3.80;1.90;;;;;;;;;;701039;28;1158;-67
2023/11/09 00:35:20;;;;;;;3.35;1.83;;;;;;;;;;699089;28;1918;-67
2023/11/09 00:35:40;;;;;;;3.63;1.87;;;;;;;;;;700206;28;1213;-66
2023/11/09 00:36:00;;;;;;;3.90;1.57;;;;;;;;;;698948;28;1281;-66
2023/11/09 00:36:21;;;;;;;3.88;1.63;;;;;;;;;;698760;28;2313;-67
2023/11/09 00:36:42;;;;;;;3.72;2.00;;;;;;;;;;699570;28;1079;-65
2023/11/09 00:37:02;;;;;;;4.78;2.20;;;;;;;;;;697831;28;4511;-65
2023/11/09 00:37:25;;;;;;;3.40;1.80;;;;;;;;;;696167;28;2041;-66
2023/11/09 00:37:46;;;;;;;3.95;1.67;;;;;;;;;;699196;28;1307;-67
2023/11/09 00:38:07;;;;;;;4.40;1.63;;;;;;;;;;696600;28;1182;-66
2023/11/09 00:38:28;;;;;;;5.20;1.70;;;;;;;;;;694181;28;2115;-65
2023/11/09 00:38:49;;;;;;;5.32;1.83;;;;;;;;;;694626;28;5243;-66
2023/11/09 00:39:12;;;;;;;4.75;1.90;;;;;;;;;;693007;28;2001;-67
2023/11/09 00:39:33;;;;;;;4.57;2.05;;;;;;;;;;696493;28;1915;-66
2023/11/09 00:39:54;;;;;;;4.00;1.98;;;;;;;;;;695530;28;4475;-67
2023/11/09 00:40:14;;;;;;;4.00;2.08;;;;;;;;;;697684;28;2531;-66
2023/11/09 00:40:35;;;;;;;4.83;1.93;;;;;;;;;;701205;28;1249;-66
2023/11/09 00:40:57;;;;;;;4.55;1.70;;;;;;;;;;700275;28;1142;-66
2023/11/09 00:41:17;;;;;;;4.60;1.83;;;;;;;;;;701588;28;1484;-66
2023/11/09 00:41:41;;;;;;;4.03;1.90;;;;;;;;;;703903;27;1324;-66
2023/11/09 00:42:01;;;;;;;4.88;1.98;;;;;;;;;;702298;28;1403;-66
2023/11/09 00:42:24;;;;;;;4.65;1.80;;;;;;;;;;701080;28;1090;-65
2023/11/09 00:42:44;;;;;;;3.03;1.80;;;;;;;;;;701833;28;4218;-68
2023/11/09 00:43:05;;;;;;;3.40;1.80;;;;;;;;;;701922;28;1198;-66
2023/11/09 00:43:26;;;;;;;3.70;1.80;;;;;;;;;;702615;28;1801;-65
2023/11/09 00:43:46;;;;;;;5.13;2.10;;;;;;;;;;702980;27;1150;-68
2023/11/09 00:44:06;;;;;;;5.05;2.00;;;;;;;;;;703587;28;1229;-67
2023/11/09 00:44:27;;;;;;;3.90;1.77;;;;;;;;;;699730;28;1461;-69
2023/11/09 00:44:48;;;;;;;3.53;1.70;;;;;;;;;;698828;28;2120;-68
2023/11/09 00:45:09;;;;;;;4.63;1.90;;;;;;;;;;697790;28;1123;-65
2023/11/09 00:45:34;;;;;;;3.45;1.55;;;;;;;;;;693892;28;1479;-66
2023/11/09 00:45:54;;;;;;;3.47;1.80;;;;;;;;;;695303;28;4433;-67
2023/11/09 00:46:15;;;;;;;3.97;1.70;;;;;;;;;;693284;28;1828;-68
2023/11/09 00:46:35;;;;;;;4.18;1.50;;;;;;;;;;696130;28;1254;-68
2023/11/09 00:46:55;;;;;;;3.63;1.90;;;;;;;;;;698403;28;1088;-70
2023/11/09 00:47:16;;;;;;;4.05;2.08;;;;;;;;;;694897;28;2369;-68
2023/11/09 00:47:37;;;;;;;3.57;1.87;;;;;;;;;;698426;28;1512;-71
2023/11/09 00:47:57;;;;;;;3.80;1.70;;;;;;;;;;695441;28;1119;-71
2023/11/09 00:48:17;;;;;;;3.00;1.60;;;;;;;;;;694287;28;1961;-71
2023/11/09 00:48:38;;;;;;;3.58;1.60;;;;;;;;;;691743;28;1486;-72
2023/11/09 00:48:58;;;;;;;3.65;1.70;;;;;;;;;;689487;28;4540;-68
2023/11/09 00:49:19;;;;;;;3.23;1.70;;;;;;;;;;689633;28;1839;-70
2023/11/09 00:49:39;;;;;;;3.40;1.70;;;;;;;;;;693060;28;1274;-70
2023/11/09 00:50:00;;;;;;;3.78;1.58;;;;;;;;;;693026;28;1293;-67
2023/11/09 00:50:21;;;;;;;3.78;1.70;;;;;;;;;;694329;28;1697;-67
2023/11/09 00:50:41;;;;;;;3.75;1.65;;;;;;;;;;692084;28;1455;-67
2023/11/09 00:51:02;;;;;;;4.10;1.70;;;;;;;;;;695986;28;1241;-65
2023/11/09 00:51:22;;;;;;;4.70;1.88;;;;;;;;;;694320;28;1256;-66
2023/11/09 00:51:42;;;;;;;3.97;1.80;;;;;;;;;;693316;28;1265;-67
2023/11/09 00:52:03;;;;;;;3.77;1.73;;;;;;;;;;691847;28;4303;-67
2023/11/09 00:52:23;;;;;;;3.95;1.77;;;;;;;;;;691883;28;2736;-67
2023/11/09 00:52:44;;;;;;;3.97;1.77;;;;;;;;;;692604;28;1227;-68
2023/11/09 00:53:04;;;;;;;3.10;1.80;;;;;;;;;;693173;28;1152;-67
2023/11/09 00:53:24;;;;;;;3.30;1.80;;;;;;;;;;693985;28;1016;-68
2023/11/09 00:53:44;;;;;;;3.70;1.60;;;;;;;;;;696696;28;1292;-67
2023/11/09 00:54:05;;;;;;;3.55;1.60;;;;;;;;;;701217;28;1265;-70
2023/11/09 00:54:25;;;;;;;3.17;1.53;;;;;;;;;;701862;28;1477;-69
2023/11/09 00:54:45;;;;;;;3.87;1.90;;;;;;;;;;702707;28;4420;-66
2023/11/09 00:55:06;;;;;;;3.33;1.80;;;;;;;;;;700792;28;1374;-66
2023/11/09 00:55:26;;;;;;;3.17;1.70;;;;;;;;;;699457;28;2181;-67
2023/11/09 00:55:46;;;;;;;3.50;1.60;;;;;;;;;;699500;28;1163;-67
2023/11/09 00:56:07;;;;;;;3.43;1.70;;;;;;;;;;700255;28;1111;-66
2023/11/09 00:56:27;;;;;;;3.30;1.70;;;;;;;;;;694215;28;1904;-66
2023/11/09 00:56:48;;;;;;;3.83;1.87;;;;;;;;;;693702;28;1168;-68
2023/11/09 00:57:09;;;;;;;4.00;2.03;;;;;;;;;;694526;28;1374;-67
2023/11/09 00:57:31;;;;;;;3.77;1.70;;;;;;;;;;693854;28;1805;-67
2023/11/09 00:57:52;;;;;;;4.10;1.60;;;;;;;;;;687840;28;4367;-67
2023/11/09 00:58:12;;;;;;;3.75;1.70;;;;;;;;;;690592;28;1192;-67
2023/11/09 00:58:32;;;;;;;3.40;1.70;;;;;;;;;;694143;28;1896;-67
2023/11/09 00:58:53;;;;;;;3.90;1.60;;;;;;;;;;692151;28;1283;-66
2023/11/09 00:59:13;;;;;;;4.25;1.70;;;;;;;;;;693484;28;1266;-67
2023/11/09 00:59:33;;;;;;;5.40;1.90;;;;;;;;;;692066;28;1813;-67
2023/11/09 00:59:54;;;;;;;3.57;1.70;;;;;;;;;;697928;28;1398;-67
2023/11/09 01:00:14;;;;;;;3.35;1.65;;;;;;;;;;692783;28;2369;-67
2023/11/09 01:00:34;;;;;;;3.47;1.70;;;;;;;;;;699143;28;1123;-67
2023/11/09 01:00:55;;;;;;;4.10;1.80;;;;;;;;;;697752;28;4521;-67
2023/11/09 01:01:15;;;;;;;3.90;1.80;;;;;;;;;;696918;28;1799;-67
2023/11/09 01:01:36;;;;;;;3.93;1.60;;;;;;;;;;700458;28;1249;-67
2023/11/09 01:01:56;;;;;;;6.83;2.20;;;;;;;;;;702995;28;1208;-69
2023/11/09 01:02:16;;;;;;;5.07;2.20;;;;;;;;;;699744;28;1835;-68
2023/11/09 01:02:38;;;;;;;5.30;2.17;;;;;;;;;;701451;28;1251;-68
2023/11/09 01:02:59;;;;;;;5.40;2.10;;;;;;;;;;701020;28;1277;-67
2023/11/09 01:03:20;;;;;;;3.78;1.80;;;;;;;;;;699148;28;2195;-67
2023/11/09 01:03:40;;;;;;;4.30;1.77;;;;;;;;;;701456;28;757;-67
2023/11/09 01:04:01;;;;;;;3.40;1.60;;;;;;;;;;697721;28;4508;-69
2023/11/09 01:04:21;;;;;;;3.67;1.58;;;;;;;;;;697838;28;1498;-66
2023/11/09 01:04:43;;;;;;;4.22;1.63;;;;;;;;;;700082;28;1222;-67
2023/11/09 01:05:05;;;;;;;4.35;1.60;;;;;;;;;;700332;28;1202;-67
2023/11/09 01:05:26;;;;;;;3.40;1.40;;;;;;;;;;699120;28;1514;-66
2023/11/09 01:05:46;;;;;;;3.33;1.67;;;;;;;;;;699330;28;1391;-66
2023/11/09 01:06:07;;;;;;;3.67;1.60;;;;;;;;;;698510;28;1595;-67
2023/11/09 01:06:27;;;;;;;3.88;1.80;;;;;;;;;;699232;28;1677;-67
2023/11/09 01:06:48;;;;;;;3.63;1.63;;;;;;;;;;698838;28;4383;-66
2023/11/09 01:07:09;;;;;;;4.07;1.50;;;;;;;;;;698418;28;1147;-67
2023/11/09 01:07:30;;;;;;;4.38;1.70;;;;;;;;;;696874;28;2060;-67
2023/11/09 01:07:50;;;;;;;4.40;1.90;;;;;;;;;;696352;28;1317;-67
2023/11/09 01:08:10;;;;;;;4.13;1.77;;;;;;;;;;698807;28;1238;-67
2023/11/09 01:08:31;;;;;;;3.47;1.70;;;;;;;;;;700394;28;2143;-67
2023/11/09 01:08:51;;;;;;;3.13;1.60;;;;;;;;;;700917;28;1186;-67
2023/11/09 01:09:13;;;;;;;3.70;1.58;;;;;;;;;;695549;28;1060;-67
2023/11/09 01:09:33;;;;;;;3.53;1.80;;;;;;;;;;694374;28;1458;-67
2023/11/09 01:09:54;;;;;;;4.90;1.97;;;;;;;;;;695184;28;4338;-67
2023/11/09 01:10:17;;;;;;;4.00;1.70;;;;;;;;;;694100;28;2480;-70
2023/11/09 01:10:37;;;;;;;4.10;1.75;;;;;;;;;;695275;28;1454;-68
2023/11/09 01:10:58;;;;;;;3.90;1.67;;;;;;;;;;696023;28;1270;-68
2023/11/09 01:11:24;;;;;;;3.60;1.70;;;;;;;;;;691507;28;1269;-67
2023/11/09 01:11:45;;;;;;;2.92;1.50;;;;;;;;;;692080;28;1458;-68
2023/11/09 01:12:06;;;;;;;3.20;1.50;;;;;;;;;;694356;28;1174;-67
2023/11/09 01:12:27;;;;;;;4.15;1.50;;;;;;;;;;695530;28;2458;-66
2023/11/09 01:12:47;;;;;;;4.55;1.73;;;;;;;;;;697812;28;4334;-67
2023/11/09 01:13:07;;;;;;;3.80;1.60;;;;;;;;;;700165;28;1193;-67
2023/11/09 01:13:28;;;;;;;3.63;1.80;;;;;;;;;;701227;28;2760;-67
2023/11/09 01:13:48;;;;;;;3.20;1.70;;;;;;;;;;705940;27;1242;-67
2023/11/09 01:14:08;;;;;;;3.13;1.73;;;;;;;;;;706076;27;1173;-67
2023/11/09 01:14:28;;;;;;;2.30;1.40;;;;;;;;;;703744;27;1381;-67
2023/11/09 01:14:49;;;;;;;4.20;1.60;;;;;;;;;;706531;27;1149;-67
2023/11/09 01:15:09;;;;;;;4.27;1.90;;;;;;;;;;703419;28;1229;-67
2023/11/09 01:15:30;;;;;;;3.95;1.70;;;;;;;;;;699376;28;1759;-68
2023/11/09 01:15:50;;;;;;;3.60;1.50;;;;;;;;;;699934;28;5131;-69
2023/11/09 01:16:10;;;;;;;4.30;1.60;;;;;;;;;;700418;28;1540;-67
2023/11/09 01:16:30;;;;;;;4.13;1.60;;;;;;;;;;698361;28;3483;-68
2023/11/09 01:16:51;;;;;;;5.17;2.10;;;;;;;;;;698007;28;1278;-66
2023/11/09 01:17:11;;;;;;;4.83;2.00;;;;;;;;;;696488;28;1548;-66
2023/11/09 01:17:35;;;;;;;3.30;1.60;;;;;;;;;;698414;28;2210;-66
2023/11/09 01:17:59;;;;;;;4.13;1.70;;;;;;;;;;699979;28;1171;-66
2023/11/09 01:18:20;;;;;;;3.47;1.73;;;;;;;;;;701561;28;1308;-67
2023/11/09 01:18:41;;;;;;;3.80;1.80;;;;;;;;;;700284;28;1360;-67
2023/11/09 01:19:02;;;;;;;4.72;1.88;;;;;;;;;;701959;28;4239;-66
2023/11/09 01:19:22;;;;;;;4.97;1.70;;;;;;;;;;701920;28;2196;-67
2023/11/09 01:19:43;;;;;;;5.10;1.70;;;;;;;;;;703193;28;1027;-71
2023/11/09 01:20:04;;;;;;;3.87;1.53;;;;;;;;;;699924;28;1301;-68
2023/11/09 01:20:25;;;;;;;4.70;1.75;;;;;;;;;;699916;28;2280;-65
2023/11/09 01:20:45;;;;;;;5.80;1.67;;;;;;;;;;703523;28;1194;-67
2023/11/09 01:21:05;;;;;;;4.00;1.50;;;;;;;;;;703449;28;1094;-69
2023/11/09 01:21:26;;;;;;;2.97;1.52;;;;;;;;;;696770;28;1964;-66
2023/11/09 01:21:46;;;;;;;3.47;1.63;;;;;;;;;;693166;28;4435;-68
2023/11/09 01:22:06;;;;;;;3.07;1.50;;;;;;;;;;693124;28;1490;-67
2023/11/09 01:22:26;;;;;;;3.03;1.45;;;;;;;;;;690993;28;1263;-67
2023/11/09 01:22:47;;;;;;;3.50;1.67;;;;;;;;;;692667;28;1140;-69
2023/11/09 01:23:09;;;;;;;3.23;1.67;;;;;;;;;;692811;28;1212;-66
2023/11/09 01:23:29;;;;;;;3.53;1.55;;;;;;;;;;694044;28;1837;-69
2023/11/09 01:23:50;;;;;;;3.77;1.60;;;;;;;;;;693787;28;1242;-66
2023/11/09 01:24:10;;;;;;;3.40;1.60;;;;;;;;;;696636;28;1299;-66
2023/11/09 01:24:30;;;;;;;3.47;1.70;;;;;;;;;;695178;28;2306;-67
2023/11/09 01:24:51;;;;;;;4.30;1.70;;;;;;;;;;694123;28;4689;-67
2023/11/09 01:25:11;;;;;;;4.20;1.70;;;;;;;;;;698340;28;1399;-67
2023/11/09 01:25:31;;;;;;;3.97;1.70;;;;;;;;;;692663;28;1471;-66
2023/11/09 01:25:51;;;;;;;5.47;1.63;;;;;;;;;;694665;28;1279;-66
2023/11/09 01:26:13;;;;;;;4.50;1.60;;;;;;;;;;697858;28;1628;-66
2023/11/09 01:26:34;;;;;;;3.80;1.60;;;;;;;;;;695831;28;2367;-67
2023/11/09 01:26:55;;;;;;;4.63;1.70;;;;;;;;;;697446;28;1194;-67
2023/11/09 01:27:15;;;;;;;4.67;1.80;;;;;;;;;;697063;28;1135;-66
2023/11/09 01:27:35;;;;;;;3.40;1.63;;;;;;;;;;694190;28;3208;-67
2023/11/09 01:27:55;;;;;;;3.90;1.80;;;;;;;;;;695360;28;4478;-67
2023/11/09 01:28:16;;;;;;;3.92;1.80;;;;;;;;;;690228;28;1922;-67
2023/11/09 01:28:36;;;;;;;4.13;1.70;;;;;;;;;;693716;28;2555;-67
2023/11/09 01:28:56;;;;;;;3.97;1.70;;;;;;;;;;699575;28;1281;-66
2023/11/09 01:29:18;;;;;;;4.57;1.67;;;;;;;;;;697572;28;1607;-67
2023/11/09 01:29:39;;;;;;;3.53;1.63;;;;;;;;;;698448;28;1531;-67
2023/11/09 01:29:59;;;;;;;4.10;1.73;;;;;;;;;;698786;28;1266;-67
2023/11/09 01:30:20;;;;;;;4.00;1.50;;;;;;;;;;696297;28;1776;-67
2023/11/09 01:30:40;;;;;;;3.57;1.50;;;;;;;;;;698421;28;1144;-70
2023/11/09 01:31:01;;;;;;;3.67;1.63;;;;;;;;;;697265;28;4265;-67
2023/11/09 01:31:21;;;;;;;3.40;1.60;;;;;;;;;;693420;28;1995;-67
2023/11/09 01:31:42;;;;;;;3.17;1.50;;;;;;;;;;696093;28;1235;-66
2023/11/09 01:32:02;;;;;;;4.65;1.60;;;;;;;;;;693011;28;1143;-67
2023/11/09 01:32:25;;;;;;;6.38;1.90;;;;;;;;;;693321;28;1545;-67
2023/11/09 01:32:45;;;;;;;3.97;1.77;;;;;;;;;;694003;28;1285;-67
2023/11/09 01:33:06;;;;;;;3.13;1.60;;;;;;;;;;696380;28;1158;-67
2023/11/09 01:33:28;;;;;;;4.00;1.70;;;;;;;;;;695223;28;2510;-66
2023/11/09 01:33:48;;;;;;;4.38;1.70;;;;;;;;;;694880;28;4211;-67
2023/11/09 01:34:10;;;;;;;4.70;1.80;;;;;;;;;;698821;28;1123;-68
2023/11/09 01:34:31;;;;;;;4.13;1.70;;;;;;;;;;696467;28;2290;-66
2023/11/09 01:34:51;;;;;;;3.33;1.67;;;;;;;;;;698557;28;1151;-67
2023/11/09 01:35:12;;;;;;;3.33;1.57;;;;;;;;;;698021;28;1286;-69
2023/11/09 01:35:32;;;;;;;3.47;1.70;;;;;;;;;;699044;28;1783;-68
2023/11/09 01:35:52;;;;;;;3.78;1.60;;;;;;;;;;696323;28;1257;-68
2023/11/09 01:36:15;;;;;;;3.37;1.53;;;;;;;;;;697778;28;1131;-67
2023/11/09 01:36:37;;;;;;;3.33;1.70;;;;;;;;;;698247;28;1489;-67
2023/11/09 01:36:58;;;;;;;3.63;1.73;;;;;;;;;;699494;28;4399;-68
2023/11/09 01:37:18;;;;;;;3.47;1.50;;;;;;;;;;697918;28;1805;-67
2023/11/09 01:37:38;;;;;;;4.13;1.50;;;;;;;;;;701156;28;1296;-67
2023/11/09 01:37:58;;;;;;;4.73;1.70;;;;;;;;;;700625;28;1234;-67
2023/11/09 01:38:20;;;;;;;3.92;1.90;;;;;;;;;;698651;28;2614;-67
2023/11/09 01:38:42;;;;;;;4.40;1.88;;;;;;;;;;697576;28;1250;-66
2023/11/09 01:39:02;;;;;;;3.97;1.65;;;;;;;;;;699670;28;5821;-67
2023/11/09 01:39:23;;;;;;;4.07;1.60;;;;;;;;;;699269;28;2226;-67
2023/11/09 01:39:44;;;;;;;3.05;1.60;;;;;;;;;;700583;28;1162;-66
2023/11/09 01:40:07;;;;;;;3.10;1.50;;;;;;;;;;703024;28;5986;-65
2023/11/09 01:40:27;;;;;;;4.03;1.80;;;;;;;;;;703065;27;2198;-66
2023/11/09 01:40:53;;;;;;;4.87;1.83;;;;;;;;;;705591;27;1271;-67
2023/11/09 01:41:13;;;;;;;4.22;1.77;;;;;;;;;;702856;28;1505;-66
2023/11/09 01:41:34;;;;;;;3.77;1.67;;;;;;;;;;702748;28;2268;-67
2023/11/09 01:41:54;;;;;;;3.30;1.67;;;;;;;;;;703399;28;1194;-67
2023/11/09 01:42:14;;;;;;;3.30;1.60;;;;;;;;;;700697;28;1142;-66
2023/11/09 01:42:35;;;;;;;5.73;1.70;;;;;;;;;;698988;28;1714;-67
2023/11/09 01:42:55;;;;;;;6.63;1.80;;;;;;;;;;695984;28;4419;-67
2023/11/09 01:43:16;;;;;;;4.93;1.77;;;;;;;;;;697440;28;1257;-68
2023/11/09 01:43:36;;;;;;;4.60;1.70;;;;;;;;;;696432;28;1479;-67
2023/11/09 01:43:57;;;;;;;4.10;1.60;;;;;;;;;;697066;28;1190;-67
2023/11/09 01:44:18;;;;;;;3.58;1.70;;;;;;;;;;700844;28;1385;-68
2023/11/09 01:44:38;;;;;;;5.40;1.80;;;;;;;;;;700472;28;1162;-69
2023/11/09 01:44:58;;;;;;;5.70;1.80;;;;;;;;;;698032;28;1398;-66
2023/11/09 01:45:19;;;;;;;4.00;1.60;;;;;;;;;;699090;28;2503;-66
2023/11/09 01:45:39;;;;;;;3.40;1.52;;;;;;;;;;698223;28;1388;-66
2023/11/09 01:46:00;;;;;;;4.17;1.60;;;;;;;;;;697697;28;4321;-68
2023/11/09 01:46:21;;;;;;;4.50;1.55;;;;;;;;;;693779;28;1263;-67
2023/11/09 01:46:42;;;;;;;4.80;1.60;;;;;;;;;;695884;28;1166;-65
2023/11/09 01:47:03;;;;;;;3.65;1.60;;;;;;;;;;697736;28;1174;-66
2023/11/09 01:47:23;;;;;;;3.30;1.60;;;;;;;;;;696303;28;1578;-66
2023/11/09 01:47:44;;;;;;;3.73;1.70;;;;;;;;;;693721;28;1179;-65
2023/11/09 01:48:05;;;;;;;3.33;1.60;;;;;;;;;;695854;28;1245;-69
2023/11/09 01:48:26;;;;;;;3.88;1.80;;;;;;;;;;693007;28;2413;-67
2023/11/09 01:48:46;;;;;;;3.00;1.60;;;;;;;;;;696556;28;4273;-68
2023/11/09 01:49:08;;;;;;;3.42;1.50;;;;;;;;;;697789;28;1143;-67
2023/11/09 01:49:30;;;;;;;4.13;1.70;;;;;;;;;;695994;28;1957;-66
2023/11/09 01:49:51;;;;;;;4.05;1.90;;;;;;;;;;697079;28;1187;-66
2023/11/09 01:50:11;;;;;;;3.80;1.73;;;;;;;;;;697445;28;1227;-67
2023/11/09 01:50:32;;;;;;;4.63;1.90;;;;;;;;;;697448;28;2354;-67
2023/11/09 01:50:52;;;;;;;3.13;1.63;;;;;;;;;;700877;28;1301;-67
2023/11/09 01:51:13;;;;;;;3.20;1.80;;;;;;;;;;698344;28;1217;-67
2023/11/09 01:51:33;;;;;;;3.10;1.80;;;;;;;;;;697028;28;2245;-67
2023/11/09 01:51:54;;;;;;;3.23;1.73;;;;;;;;;;697750;28;4267;-67
2023/11/09 01:52:15;;;;;;;4.03;1.88;;;;;;;;;;698018;28;1159;-67
2023/11/09 01:52:35;;;;;;;4.85;2.05;;;;;;;;;;696818;28;1892;-68
2023/11/09 01:52:56;;;;;;;4.38;1.80;;;;;;;;;;699912;28;1186;-65
2023/11/09 01:53:16;;;;;;;4.37;1.57;;;;;;;;;;703256;28;1320;-67
2023/11/09 01:53:37;;;;;;;2.92;1.60;;;;;;;;;;699763;28;1921;-67
2023/11/09 01:53:57;;;;;;;3.03;1.63;;;;;;;;;;699165;28;1265;-65
2023/11/09 01:54:18;;;;;;;4.13;1.80;;;;;;;;;;699901;28;1234;-66
2023/11/09 01:54:39;;;;;;;3.42;1.70;;;;;;;;;;698442;28;1527;-67
2023/11/09 01:54:59;;;;;;;3.43;1.50;;;;;;;;;;696512;28;4392;-67
2023/11/09 01:55:21;;;;;;;2.92;1.70;;;;;;;;;;695492;28;1874;-66
2023/11/09 01:55:41;;;;;;;3.00;1.80;;;;;;;;;;699482;28;1536;-66
2023/11/09 01:56:03;;;;;;;2.80;1.50;;;;;;;;;;699534;28;1396;-66
2023/11/09 01:56:24;;;;;;;2.95;1.50;;;;;;;;;;695900;28;1972;-67
2023/11/09 01:56:44;;;;;;;3.30;1.60;;;;;;;;;;695039;28;1180;-67
2023/11/09 01:57:06;;;;;;;3.93;1.60;;;;;;;;;;694199;28;1207;-66
2023/11/09 01:57:26;;;;;;;3.97;1.63;;;;;;;;;;693539;28;1509;-69
2023/11/09 01:57:47;;;;;;;2.97;1.60;;;;;;;;;;687569;28;4384;-65
2023/11/09 01:58:08;;;;;;;4.13;1.70;;;;;;;;;;689995;28;1305;-67
2023/11/09 01:58:29;;;;;;;3.83;1.80;;;;;;;;;;691853;28;1974;-66
2023/11/09 01:58:49;;;;;;;3.05;1.58;;;;;;;;;;690792;28;1277;-66
2023/11/09 01:59:11;;;;;;;3.70;1.60;;;;;;;;;;688734;28;1619;-66
2023/11/09 01:59:32;;;;;;;5.13;1.80;;;;;;;;;;691038;28;1766;-66
2023/11/09 01:59:53;;;;;;;3.35;1.65;;;;;;;;;;693715;28;1556;-67
2023/11/09 02:00:14;;;;;;;3.35;1.50;;;;;;;;;;695021;28;770;-66
2023/11/09 02:00:36;;;;;;;3.00;1.40;;;;;;;;;;692447;28;1651;-65
2023/11/09 02:00:58;;;;;;;4.18;1.90;;;;;;;;;;692076;28;4296;-66
2023/11/09 02:01:19;;;;;;;4.03;1.73;;;;;;;;;;694858;28;1492;-68
2023/11/09 02:01:41;;;;;;;4.13;1.70;;;;;;;;;;698723;28;1139;-67
2023/11/09 02:02:01;;;;;;;3.53;1.80;;;;;;;;;;700711;28;1490;-68
2023/11/09 02:02:22;;;;;;;3.95;1.90;;;;;;;;;;699649;28;1820;-67
2023/11/09 02:02:43;;;;;;;3.25;1.75;;;;;;;;;;699033;28;1616;-67
2023/11/09 02:03:04;;;;;;;4.43;1.70;;;;;;;;;;700892;28;1190;-68
2023/11/09 02:03:25;;;;;;;3.88;1.80;;;;;;;;;;699269;28;2252;-65
2023/11/09 02:03:45;;;;;;;2.92;1.58;;;;;;;;;;700629;28;4287;-65
2023/11/09 02:04:06;;;;;;;3.93;1.70;;;;;;;;;;700652;28;1217;-66
2023/11/09 02:04:26;;;;;;;3.90;1.70;;;;;;;;;;699380;28;1051;-67
2023/11/09 02:04:47;;;;;;;3.80;1.60;;;;;;;;;;700979;28;1379;-69
2023/11/09 02:05:08;;;;;;;3.15;1.50;;;;;;;;;;696159;28;1147;-67
2023/11/09 02:05:29;;;;;;;3.38;1.42;;;;;;;;;;697769;28;1512;-67
2023/11/09 02:05:50;;;;;;;3.40;1.67;;;;;;;;;;699088;28;1225;-66
2023/11/09 02:06:10;;;;;;;3.55;1.63;;;;;;;;;;698250;28;1333;-66
2023/11/09 02:06:31;;;;;;;3.30;1.67;;;;;;;;;;698426;28;1919;-68
2023/11/09 02:06:53;;;;;;;4.32;1.60;;;;;;;;;;699029;28;4400;-67
2023/11/09 02:07:13;;;;;;;4.13;1.60;;;;;;;;;;703111;28;1071;-68
2023/11/09 02:07:36;;;;;;;3.88;1.80;;;;;;;;;;701650;28;1778;-69
2023/11/09 02:07:56;;;;;;;4.32;1.70;;;;;;;;;;700820;28;1079;-66
2023/11/09 02:08:18;;;;;;;3.40;1.50;;;;;;;;;;700096;28;1230;-68
2023/11/09 02:08:39;;;;;;;3.20;1.60;;;;;;;;;;699845;28;1389;-68